Johnstown, CO

2:06 AM MDT on August 25, 2019 (GMT -0600)
Johnstown | | Change Station
Active Advisory: Fire Weather Warning

Elev 4865 ft 40.34 °N, 104.92 °W | Updated 17 seconds ago

Clear
Clear
60.4 °F
Feels Like 60.4 °F
N
0
Wind Variable Wind from West
Gusts 0.0 mph

Today
High -- | Low -- °F
--% Chance of Precip.
Yesterday
High -- | Low -- °F
Precip. -- in
Pressure 29.78 in
Visibility 10.0 miles
Clouds Clear
Dew Point 54 °F
Humidity 80%
Rainfall 0.00 in
Snow Depth Not available.
6:20 AM 7:42 PM
Waning Crescent, 32% visible
METAR KFNL 250756Z AUTO 01005KT 10SM CLR 16/11 A2998 RMK AO2 SLP085 T01610111
Pressure 29.78 in
Visibility 10.0 miles
Clouds Clear
Dew Point 54 °F
Humidity 80%
Rainfall 0.00 in
Snow Depth Not available.
6:20 AM 7:42 PM
Waning Crescent, 32% visible
METAR KFNL 250756Z AUTO 01005KT 10SM CLR 16/11 A2998 RMK AO2 SLP085 T01610111

Get Your Daily Forecast Email!

Thanks for signing up!

Be on the lookout for a verification email in your inbox.

You'll start receiving severe weather alerts in your inbox..

×

10-Day Weather Forecast

Almanac

Astronomy

Aug. 25, 2019 Rise Set
Actual Time
Civil Twilight
Nautical Twilight
Astronomical Twilight
Moon
Length of Visible Light
Length of Day
Tomorrow will be .
, % of the Moon is Illuminated

Today's Extremes

State Highs State Lows

Community

WunderPhotos

Category 6

Welcome to Category 6. This is the collective home for Weather Underground's featured writeups by Dr. Jeff Masters (right), Bob Henson (left), Chris Burt, and other regular contributors.

Nearby

Air Quality

  Air Quality AQ Index Pollutant
Not available.

Snow Depth

Station Depth Elevation

Earthquake Activity

City Distance Mag. Time & Date
Minimum magnitude displayed is 2.5.

Coastal Water Temperatures

Place Temperature

Stations

Nearby Weather Stations

Station Location Temp. Windchill Dew Point Humidity Wind Precip. Elev Updated Type
                   

Watches & Warnings

Fire Weather Warning
Issued: 1:48 PM MDT Aug. 24, 2019 – National Weather Service

... Red flag warning in effect from 11 am to 8 PM MDT Sunday for
wind and low relative humidity for North Park, Middle Park,
South Park, the far northern mountains and foothills and the
Cheyenne Ridge...

The National Weather Service in Denver has issued a red flag
warning for wind and low relative humidity, which is in effect
from 11 am to 8 PM MDT Sunday. The Fire Weather Watch is no
longer in effect.

* Affected area... fire weather zones 211... 213... 214... 215...
238 and 242.

* Winds... west 15 to 25 mph with gusts up to 40 mph.

* Timing... late Sunday morning through Sunday evening.

* Relative humidity... as low as 14 percent.

* Impacts... fires will start easily and spread rapidly.

Precautionary/preparedness actions...

A red flag warning means that critical fire weather conditions
are either occurring now... .or will shortly. A combination of
strong winds... low relative humidity... and warm temperatures can
contribute to extreme fire behavior.